Time;durP1;ratioP1;P1;durP2;ratioP2;P2;SDS_P1;SDS_P2;PMS_P1;PMS_P2;Temp;Humidity;BMP_temperature;BMP_pressure;BME280_temperature;BME280_humidity;BME280_pressure;Samples;Min_cycle;Max_cycle;Signal;HPM_P1;HPM_P2
2024/04/09 00:00:41;;;;;;;23.10;5.67;;;14.10;59.50;;;;;;5425505;26;20571;-63
2024/04/09 00:03:06;;;;;;;22.20;4.93;;;14.10;59.60;;;;;;5437504;26;20231;-63
2024/04/09 00:05:32;;;;;;;20.07;5.83;;;14.10;59.70;;;;;;5430479;26;20514;-60
2024/04/09 00:07:59;;;;;;;22.17;5.80;;;14.00;59.80;;;;;;5424196;26;20239;-62
2024/04/09 00:10:25;;;;;;;38.40;6.13;;;14.00;59.90;;;;;;5437144;26;20461;-62
2024/04/09 00:12:52;;;;;;;23.53;5.73;;;14.00;60.00;;;;;;5432342;26;20948;-61
2024/04/09 00:15:18;;;;;;;24.63;6.30;;;14.00;60.40;;;;;;5431778;26;20458;-63
2024/04/09 00:17:54;;;;;;;24.90;8.00;;;13.90;60.30;;;;;;5419349;26;20510;-63
2024/04/09 00:20:23;;;;;;;26.30;6.43;;;13.90;60.00;;;;;;5432329;26;20454;-62
2024/04/09 00:22:55;;;;;;;28.43;6.00;;;13.80;59.70;;;;;;5425805;26;20514;-61
2024/04/09 00:25:22;;;;;;;23.17;6.50;;;13.80;59.60;;;;;;5438344;26;20457;-61
2024/04/09 00:27:50;;;;;;;18.73;6.07;;;13.90;59.70;;;;;;5436234;26;20863;-62
2024/04/09 00:30:17;;;;;;;23.13;7.33;;;13.80;60.00;;;;;;5430508;26;20507;-63
2024/04/09 00:32:44;;;;;;;31.53;6.70;;;13.80;60.00;;;;;;5418118;26;20464;-62
2024/04/09 00:35:11;;;;;;;27.33;5.87;;;13.80;60.10;;;;;;5424749;26;20454;-63
2024/04/09 00:37:39;;;;;;;20.10;5.70;;;13.80;60.00;;;;;;5419110;26;21016;-62
2024/04/09 00:40:09;;;;;;;18.67;6.80;;;13.80;60.40;;;;;;5422208;26;20450;-62
2024/04/09 00:42:36;;;;;;;29.90;5.80;;;13.80;60.60;;;;;;5423812;26;20952;-62
2024/04/09 00:45:04;;;;;;;22.50;6.17;;;13.70;60.60;;;;;;5434450;26;20513;-61
2024/04/09 00:47:36;;;;;;;25.33;6.23;;;13.70;60.90;;;;;;5422161;26;20499;-62
2024/04/09 00:50:05;;;;;;;14.57;5.00;;;13.70;61.00;;;;;;5414416;26;20457;-62
2024/04/09 00:52:33;;;;;;;19.87;5.43;;;13.70;61.20;;;;;;5420804;26;21243;-62
2024/04/09 00:54:59;;;;;;;28.23;6.37;;;13.60;61.20;;;;;;5417579;26;21048;-63
2024/04/09 00:57:25;;;;;;;20.87;6.23;;;13.60;61.40;;;;;;5429387;26;20968;-62
2024/04/09 00:59:52;;;;;;;18.47;5.57;;;13.60;61.40;;;;;;5423256;26;20453;-63
2024/04/09 01:02:21;;;;;;;15.43;5.40;;;13.60;61.30;;;;;;5424335;26;20589;-63
2024/04/09 01:04:46;;;;;;;27.53;5.70;;;13.60;61.10;;;;;;5423262;26;20453;-62
2024/04/09 01:07:12;;;;;;;19.13;5.33;;;13.60;60.90;;;;;;5423208;26;20451;-63
2024/04/09 01:09:41;;;;;;;22.70;5.47;;;13.60;60.90;;;;;;5428470;26;20698;-63
2024/04/09 01:12:07;;;;;;;20.33;6.07;;;13.60;61.00;;;;;;5432355;26;20306;-63
2024/04/09 01:14:32;;;;;;;24.07;5.90;;;13.60;61.20;;;;;;5418949;26;20462;-62
2024/04/09 01:16:58;;;;;;;23.13;5.40;;;13.60;61.80;;;;;;5428342;26;20738;-63
2024/04/09 01:19:23;;;;;;;17.93;5.10;;;13.60;61.80;;;;;;5436349;26;20223;-63
2024/04/09 01:21:52;;;;;;;27.63;5.27;;;13.60;61.80;;;;;;5422446;26;20284;-63
2024/04/09 01:24:18;;;;;;;24.33;5.87;;;13.60;62.50;;;;;;5423631;26;20228;-61
2024/04/09 01:26:43;;;;;;;21.97;5.50;;;13.50;61.90;;;;;;5419919;26;20522;-63
2024/04/09 01:29:09;;;;;;;28.33;7.80;;;13.50;62.10;;;;;;5424340;26;20449;-63
2024/04/09 01:31:35;;;;;;;20.73;6.27;;;13.50;62.50;;;;;;5425417;26;20797;-62
2024/04/09 01:34:02;;;;;;;27.97;6.00;;;13.50;62.50;;;;;;5418208;26;20225;-63
2024/04/09 01:36:28;;;;;;;22.30;5.20;;;13.50;62.40;;;;;;5426262;26;20244;-64
2024/04/09 01:38:54;;;;;;;39.50;6.23;;;13.50;62.30;;;;;;5418326;26;20511;-63
2024/04/09 01:41:19;;;;;;;27.90;6.47;;;13.50;62.10;;;;;;5417498;26;20228;-63
2024/04/09 01:43:45;;;;;;;32.03;6.57;;;13.50;62.20;;;;;;5428671;26;20270;-63
2024/04/09 01:46:11;;;;;;;21.63;6.30;;;13.50;62.80;;;;;;5428348;26;20223;-63
2024/04/09 01:48:37;;;;;;;22.07;6.30;;;13.50;62.80;;;;;;5425379;26;20491;-63
2024/04/09 01:51:08;;;;;;;15.73;6.37;;;13.50;62.90;;;;;;5428929;26;20232;-63
2024/04/09 01:53:34;;;;;;;21.33;6.20;;;13.50;62.50;;;;;;5434329;26;20990;-62
2024/04/09 01:56:00;;;;;;;16.77;5.67;;;13.40;62.00;;;;;;5420712;26;20567;-63
2024/04/09 01:58:26;;;;;;;21.37;5.30;;;13.40;61.70;;;;;;5416146;26;20332;-63
2024/04/09 02:00:52;;;;;;;20.20;4.73;;;13.30;61.60;;;;;;5415386;26;21294;-63
2024/04/09 02:03:18;;;;;;;18.63;6.37;;;13.20;61.60;;;;;;5427123;26;20447;-62
2024/04/09 02:05:45;;;;;;;27.13;6.17;;;13.20;61.80;;;;;;5432890;26;21117;-63
2024/04/09 02:08:10;;;;;;;30.43;5.23;;;13.10;62.10;;;;;;5420636;26;20267;-63
2024/04/09 02:10:36;;;;;;;36.57;5.50;;;13.10;62.30;;;;;;5416691;26;20446;-62
2024/04/09 02:13:03;;;;;;;24.37;5.70;;;13.00;62.10;;;;;;5425544;26;20231;-62
2024/04/09 02:15:29;;;;;;;30.10;6.10;;;13.00;62.10;;;;;;5424538;26;20221;-62
2024/04/09 02:17:55;;;;;;;22.80;5.30;;;13.00;62.00;;;;;;5431285;26;20445;-61
2024/04/09 02:20:23;;;;;;;38.33;5.67;;;13.00;62.20;;;;;;5425525;26;20449;-61
2024/04/09 02:22:49;;;;;;;25.67;6.03;;;13.00;62.20;;;;;;5422158;26;20580;-62
2024/04/09 02:25:15;;;;;;;24.57;6.63;;;12.90;62.40;;;;;;5432762;26;20473;-63
2024/04/09 02:27:40;;;;;;;25.27;6.20;;;12.90;62.60;;;;;;5427753;26;21151;-63
2024/04/09 02:30:09;;;;;;;20.57;5.90;;;12.90;62.60;;;;;;5429565;26;20462;-63
2024/04/09 02:32:36;;;;;;;23.07;5.77;;;12.80;62.40;;;;;;5419876;26;20279;-62
2024/04/09 02:35:04;;;;;;;35.80;6.30;;;12.80;62.40;;;;;;5423932;26;20956;-61
2024/04/09 02:37:31;;;;;;;28.40;5.73;;;12.80;62.50;;;;;;5431924;26;20469;-63
2024/04/09 02:39:58;;;;;;;26.73;6.43;;;12.80;62.70;;;;;;5417909;26;20454;-63
2024/04/09 02:42:25;;;;;;;22.47;6.83;;;12.70;62.90;;;;;;5422463;26;20461;-63
2024/04/09 02:44:50;;;;;;;22.37;6.70;;;12.60;62.90;;;;;;5414746;26;20577;-63
2024/04/09 02:47:16;;;;;;;20.50;5.73;;;12.60;63.20;;;;;;5409307;26;20850;-63
2024/04/09 02:49:43;;;;;;;34.67;6.37;;;12.50;63.30;;;;;;5414694;26;20232;-62
2024/04/09 02:52:10;;;;;;;28.33;6.40;;;12.50;63.30;;;;;;5414215;26;20284;-62
2024/04/09 02:54:35;;;;;;;18.60;6.33;;;12.40;63.40;;;;;;5412139;26;20510;-62
2024/04/09 02:57:01;;;;;;;26.20;5.90;;;12.40;63.60;;;;;;5410142;26;20474;-62
2024/04/09 02:59:26;;;;;;;21.43;6.20;;;12.40;63.70;;;;;;5415377;26;20279;-63
2024/04/09 03:01:52;;;;;;;20.80;5.87;;;12.40;63.80;;;;;;5414036;26;20236;-63
2024/04/09 03:04:18;;;;;;;18.83;6.03;;;12.40;63.70;;;;;;5411128;26;20323;-62
2024/04/09 03:06:43;;;;;;;23.23;7.07;;;12.40;63.80;;;;;;5426015;26;20266;-63
2024/04/09 03:09:10;;;;;;;29.53;6.57;;;12.40;63.70;;;;;;5421202;26;20465;-63
2024/04/09 03:11:36;;;;;;;20.83;6.43;;;12.50;63.60;;;;;;5422439;26;20762;-63
2024/04/09 03:14:06;;;;;;;25.20;6.23;;;12.50;64.20;;;;;;5433933;26;20550;-61
2024/04/09 03:16:32;;;;;;;24.67;6.07;;;12.50;63.70;;;;;;5421639;26;20545;-62
2024/04/09 03:18:59;;;;;;;19.10;5.70;;;12.50;63.90;;;;;;5426521;26;20506;-63
2024/04/09 03:21:24;;;;;;;22.80;6.53;;;12.50;64.10;;;;;;5421691;26;20228;-62
2024/04/09 03:23:50;;;;;;;16.93;5.57;;;12.40;64.30;;;;;;5419619;26;20450;-62
2024/04/09 03:26:16;;;;;;;34.97;6.70;;;12.30;64.70;;;;;;5425336;26;20328;-62
2024/04/09 03:28:41;;;;;;;27.03;8.43;;;12.30;64.90;;;;;;5423782;26;20634;-63
2024/04/09 03:31:08;;;;;;;30.50;5.97;;;12.20;64.80;;;;;;5420935;26;20263;-63
2024/04/09 03:33:34;;;;;;;19.53;5.20;;;12.10;64.80;;;;;;5413840;26;20236;-62
2024/04/09 03:36:01;;;;;;;31.83;6.13;;;12.00;64.60;;;;;;5424396;26;21120;-63
2024/04/09 03:38:27;;;;;;;19.53;5.60;;;11.90;64.80;;;;;;5443085;26;20466;-62
2024/04/09 03:41:06;;;;;;;15.87;6.10;;;11.90;65.00;;;;;;5433926;26;20469;-63
2024/04/09 03:43:32;;;;;;;23.17;6.50;;;11.80;65.00;;;;;;5417254;26;20340;-62
2024/04/09 03:46:00;;;;;;;17.47;5.63;;;11.90;64.90;;;;;;5429789;26;20539;-64
2024/04/09 03:48:25;;;;;;;24.97;5.77;;;11.80;64.80;;;;;;5430620;26;21305;-63
2024/04/09 03:50:51;;;;;;;18.10;6.33;;;11.90;65.00;;;;;;5423908;26;20456;-63
2024/04/09 03:53:16;;;;;;;28.90;8.17;;;11.90;65.00;;;;;;5414570;26;20287;-62
2024/04/09 03:55:59;;;;;;;29.43;6.77;;;11.90;65.20;;;;;;5413117;26;20235;-63
2024/04/09 03:58:29;;;;;;;27.97;6.13;;;12.00;65.60;;;;;;5420014;26;20228;-63
2024/04/09 04:00:59;;;;;;;29.97;7.00;;;12.00;65.60;;;;;;5415729;26;20443;-63
2024/04/09 04:03:26;;;;;;;18.23;7.20;;;12.00;65.70;;;;;;5418931;26;20465;-62
2024/04/09 04:05:56;;;;;;;25.20;6.67;;;12.00;65.70;;;;;;5426448;26;20461;-62
2024/04/09 04:08:23;;;;;;;25.90;6.63;;;12.00;65.70;;;;;;5428328;26;20572;-64
2024/04/09 04:10:56;;;;;;;16.10;7.03;;;12.10;65.80;;;;;;5425124;26;20551;-64
2024/04/09 04:13:27;;;;;;;13.43;5.53;;;12.00;65.40;;;;;;5419216;26;21045;-65
2024/04/09 04:16:14;;;;;;;25.40;8.33;;;12.00;65.40;;;;;;5417629;26;20440;-65
2024/04/09 04:18:43;;;;;;;30.23;8.97;;;11.90;65.80;;;;;;5413731;26;21051;-64
2024/04/09 04:21:10;;;;;;;23.60;8.00;;;11.80;66.40;;;;;;5420225;26;20585;-64
2024/04/09 04:23:36;;;;;;;30.27;8.10;;;11.80;66.60;;;;;;5416301;26;20466;-65
2024/04/09 04:26:07;;;;;;;27.07;8.00;;;11.80;66.60;;;;;;5417511;26;20513;-64
2024/04/09 04:28:39;;;;;;;32.53;7.83;;;11.90;66.80;;;;;;5423217;26;20254;-63
2024/04/09 04:31:10;;;;;;;36.67;7.20;;;11.90;66.60;;;;;;5426074;26;20557;-64
2024/04/09 04:33:37;;;;;;;29.77;7.70;;;12.00;66.60;;;;;;5409326;26;20535;-63
2024/04/09 04:36:02;;;;;;;26.43;6.40;;;12.00;66.60;;;;;;5422658;26;20478;-63
2024/04/09 04:38:28;;;;;;;25.93;5.50;;;12.00;66.30;;;;;;5419442;26;21067;-63
2024/04/09 04:40:54;;;;;;;27.57;5.50;;;12.10;65.50;;;;;;5425369;26;20262;-63
2024/04/09 04:43:20;;;;;;;27.77;5.83;;;12.10;64.90;;;;;;5411539;26;20229;-64
2024/04/09 04:45:47;;;;;;;19.87;5.73;;;12.20;63.80;;;;;;5416049;26;20622;-64
2024/04/09 04:48:13;;;;;;;25.27;5.63;;;12.40;62.70;;;;;;5417944;26;20228;-60
2024/04/09 04:50:39;;;;;;;23.93;5.87;;;12.50;61.50;;;;;;5415156;26;20458;-64
2024/04/09 04:53:05;;;;;;;17.37;5.00;;;12.60;60.50;;;;;;5423656;26;20598;-63
2024/04/09 04:55:32;;;;;;;38.53;5.47;;;12.70;60.20;;;;;;5420479;26;20989;-64
2024/04/09 04:57:58;;;;;;;31.27;6.23;;;12.90;60.20;;;;;;5431034;26;21014;-65
2024/04/09 05:00:24;;;;;;;37.13;6.77;;;12.90;60.90;;;;;;5423438;26;20457;-64
2024/04/09 05:02:49;;;;;;;29.33;6.17;;;13.00;61.60;;;;;;5424559;26;20515;-63
2024/04/09 05:05:15;;;;;;;29.40;5.00;;;13.00;60.90;;;;;;5436378;26;20261;-65
2024/04/09 05:07:42;;;;;;;26.87;5.20;;;13.10;59.80;;;;;;5429883;26;20320;-62
2024/04/09 05:10:13;;;;;;;29.10;4.60;;;13.20;59.00;;;;;;5422821;26;20224;-65
2024/04/09 05:12:46;;;;;;;41.57;4.23;;;13.40;58.20;;;;;;5430929;26;20445;-64
2024/04/09 05:15:13;;;;;;;30.13;5.00;;;13.60;57.10;;;;;;5432940;26;21265;-65
2024/04/09 05:17:39;;;;;;;35.97;5.53;;;13.80;56.10;;;;;;5442840;26;21121;-64
2024/04/09 05:20:11;;;;;;;25.07;4.23;;;14.10;55.40;;;;;;5431110;26;20919;-65
2024/04/09 05:22:37;;;;;;;26.00;4.10;;;14.30;55.10;;;;;;5420128;26;20494;-64
2024/04/09 05:25:02;;;;;;;33.37;4.20;;;14.40;54.70;;;;;;5422868;26;20466;-65
2024/04/09 05:27:28;;;;;;;20.23;4.07;;;14.50;54.50;;;;;;5421096;26;20237;-63
2024/04/09 05:29:54;;;;;;;18.57;4.37;;;14.60;54.30;;;;;;5440079;26;20647;-64
2024/04/09 05:32:19;;;;;;;23.20;4.93;;;14.70;54.10;;;;;;5428246;26;20738;-62
2024/04/09 05:34:45;;;;;;;16.80;4.33;;;14.80;53.90;;;;;;5421113;26;20225;-63
2024/04/09 05:37:11;;;;;;;23.87;4.63;;;14.80;53.60;;;;;;5421155;26;20735;-64
2024/04/09 05:39:36;;;;;;;21.60;4.30;;;14.90;53.70;;;;;;5419250;26;20240;-64
2024/04/09 05:42:02;;;;;;;20.30;5.00;;;15.00;53.60;;;;;;5432725;26;20333;-64
2024/04/09 05:44:28;;;;;;;23.67;4.97;;;15.00;53.50;;;;;;5421778;26;20267;-64
2024/04/09 05:46:53;;;;;;;21.93;4.00;;;15.10;53.30;;;;;;5439670;26;20227;-65
2024/04/09 05:49:21;;;;;;;24.23;4.20;;;15.10;53.20;;;;;;5421063;26;20271;-64
2024/04/09 05:51:47;;;;;;;32.03;5.00;;;15.20;53.10;;;;;;5431390;26;20270;-64
2024/04/09 05:54:15;;;;;;;26.33;4.73;;;15.30;53.50;;;;;;5433777;26;20450;-65
2024/04/09 05:56:41;;;;;;;16.50;4.10;;;15.20;53.60;;;;;;5431327;26;20224;-64
2024/04/09 05:59:07;;;;;;;29.97;4.60;;;15.20;53.80;;;;;;5422156;26;21431;-64
2024/04/09 06:01:32;;;;;;;28.53;4.30;;;15.20;53.70;;;;;;5432286;26;20646;-64
2024/04/09 06:03:58;;;;;;;24.57;4.80;;;15.20;54.00;;;;;;5423998;26;20469;-64
2024/04/09 06:06:24;;;;;;;23.90;4.23;;;15.20;54.00;;;;;;5435706;26;20231;-64
2024/04/09 06:08:49;;;;;;;34.03;4.30;;;15.20;53.90;;;;;;5427737;26;20224;-64
2024/04/09 06:11:15;;;;;;;19.53;4.23;;;15.30;53.80;;;;;;5436336;26;20341;-65
2024/04/09 06:13:40;;;;;;;28.37;4.40;;;15.40;54.00;;;;;;5431615;26;20852;-64
2024/04/09 06:16:07;;;;;;;26.63;5.23;;;15.40;54.00;;;;;;5433260;26;20341;-64
2024/04/09 06:18:33;;;;;;;20.90;5.27;;;15.50;54.10;;;;;;5425047;26;20232;-64
2024/04/09 06:20:59;;;;;;;30.00;5.90;;;15.60;54.10;;;;;;5429042;26;20517;-64
2024/04/09 06:23:24;;;;;;;22.77;4.17;;;15.60;54.10;;;;;;5410537;26;20542;-64
2024/04/09 06:25:58;;;;;;;25.77;4.30;;;15.60;54.10;;;;;;5408887;26;20287;-62
2024/04/09 06:28:23;;;;;;;28.10;5.40;;;15.60;54.20;;;;;;5427890;26;20272;-64
2024/04/09 06:30:49;;;;;;;27.73;4.37;;;15.70;54.30;;;;;;5428762;26;21283;-63
2024/04/09 06:33:14;;;;;;;26.17;4.30;;;15.70;54.50;;;;;;5435602;26;20282;-64
2024/04/09 06:35:40;;;;;;;20.13;4.40;;;15.80;54.80;;;;;;5425223;26;20772;-65
2024/04/09 06:38:06;;;;;;;19.00;4.20;;;15.80;54.60;;;;;;5424141;26;20818;-63
2024/04/09 06:40:32;;;;;;;20.50;3.90;;;15.90;55.60;;;;;;5424696;26;20283;-63
2024/04/09 06:42:58;;;;;;;20.33;3.93;;;15.90;55.80;;;;;;5415125;26;21167;-64
2024/04/09 06:45:24;;;;;;;17.57;3.77;;;15.90;55.70;;;;;;5437182;26;20501;-64
2024/04/09 06:47:50;;;;;;;20.73;4.20;;;15.90;55.60;;;;;;5427161;26;20592;-64
2024/04/09 06:50:16;;;;;;;22.10;4.90;;;15.90;56.10;;;;;;5423062;26;20232;-63
2024/04/09 06:52:42;;;;;;;20.37;4.20;;;15.80;56.10;;;;;;5432455;26;20450;-64
2024/04/09 06:55:09;;;;;;;23.30;4.13;;;15.80;56.30;;;;;;5421421;26;20451;-64
2024/04/09 06:57:35;;;;;;;19.90;3.67;;;15.80;56.50;;;;;;5428103;26;20459;-64
2024/04/09 07:00:01;;;;;;;27.63;3.80;;;15.80;56.50;;;;;;5429948;26;20461;-63
2024/04/09 07:02:27;;;;;;;23.60;4.20;;;15.80;56.80;;;;;;5431004;26;20233;-65
2024/04/09 07:04:52;;;;;;;14.47;3.37;;;15.80;57.00;;;;;;5417006;26;20269;-64
2024/04/09 07:07:18;;;;;;;15.30;4.07;;;15.80;57.20;;;;;;5419581;26;20240;-63
2024/04/09 07:09:43;;;;;;;19.70;3.60;;;15.80;57.30;;;;;;5425373;26;20225;-64
2024/04/09 07:12:09;;;;;;;29.70;4.40;;;15.70;57.10;;;;;;5426908;26;20228;-65
2024/04/09 07:14:35;;;;;;;21.33;4.27;;;15.70;57.50;;;;;;5431212;26;20634;-63
2024/04/09 07:17:00;;;;;;;24.00;4.37;;;15.70;58.00;;;;;;5419123;26;20243;-64
2024/04/09 07:19:27;;;;;;;24.00;4.47;;;15.70;57.80;;;;;;5428427;26;20231;-64
2024/04/09 07:21:52;;;;;;;14.27;3.60;;;15.80;57.80;;;;;;5429779;26;20248;-65
2024/04/09 07:24:18;;;;;;;18.70;4.50;;;15.80;58.20;;;;;;5431118;26;20569;-64
2024/04/09 07:26:44;;;;;;;23.97;4.37;;;15.70;58.00;;;;;;5430487;26;20274;-65
2024/04/09 07:29:09;;;;;;;18.47;4.30;;;15.70;58.30;;;;;;5435873;26;20329;-64
2024/04/09 07:31:36;;;;;;;19.20;3.63;;;15.70;58.20;;;;;;5428384;26;20216;-64
2024/04/09 07:34:02;;;;;;;24.27;3.87;;;15.70;58.40;;;;;;5425688;26;20276;-65
2024/04/09 07:36:27;;;;;;;28.97;4.10;;;15.70;58.60;;;;;;5429611;26;20457;-64
2024/04/09 07:38:53;;;;;;;16.53;4.30;;;15.70;58.90;;;;;;5437230;26;20332;-63
2024/04/09 07:41:22;;;;;;;21.80;4.50;;;15.60;58.80;;;;;;5422796;26;20229;-63
2024/04/09 07:43:49;;;;;;;13.50;3.50;;;15.60;59.00;;;;;;5412449;26;20509;-63
2024/04/09 07:46:14;;;;;;;21.33;4.10;;;15.60;59.40;;;;;;5416813;26;21064;-61
2024/04/09 07:48:40;;;;;;;19.80;3.87;;;15.60;59.40;;;;;;5418611;26;20534;-64
2024/04/09 07:51:05;;;;;;;18.40;3.70;;;15.50;59.60;;;;;;5421783;26;20224;-63
2024/04/09 07:53:31;;;;;;;20.53;3.20;;;15.50;59.80;;;;;;5424901;26;20248;-66
2024/04/09 07:55:57;;;;;;;14.33;4.23;;;15.50;60.20;;;;;;5411498;26;20307;-64
2024/04/09 07:58:23;;;;;;;10.97;3.60;;;15.40;60.10;;;;;;5434289;26;20828;-64
2024/04/09 08:00:49;;;;;;;15.77;4.07;;;15.40;60.10;;;;;;5424430;26;20228;-64
2024/04/09 08:03:14;;;;;;;15.00;3.57;;;15.40;60.40;;;;;;5437333;26;20328;-65
2024/04/09 08:05:40;;;;;;;27.20;4.00;;;15.40;60.50;;;;;;5420118;26;20240;-64
2024/04/09 08:08:06;;;;;;;14.57;2.63;;;15.40;60.50;;;;;;5431709;26;20672;-62
2024/04/09 08:10:32;;;;;;;8.63;2.07;;;15.40;61.00;;;;;;5421435;26;20318;-65
2024/04/09 08:13:00;;;;;;;10.07;2.10;;;15.30;60.70;;;;;;5428754;26;20843;-65
2024/04/09 08:15:25;;;;;;;3.83;1.37;;;15.20;60.80;;;;;;5420842;26;21043;-64
2024/04/09 08:17:51;;;;;;;6.57;1.30;;;14.90;60.50;;;;;;5426174;26;20583;-63
2024/04/09 08:20:19;;;;;;;3.50;1.33;;;14.60;61.00;;;;;;5436035;26;20278;-62
2024/04/09 08:22:50;;;;;;;5.17;1.40;;;14.20;61.10;;;;;;5429093;26;20243;-65
2024/04/09 08:25:16;;;;;;;1.07;0.97;;;14.00;62.00;;;;;;5431078;26;20463;-66
2024/04/09 08:27:42;;;;;;;3.47;1.20;;;13.70;61.80;;;;;;5435020;26;20516;-64
2024/04/09 08:30:12;;;;;;;2.50;1.10;;;13.50;62.40;;;;;;5435479;26;20457;-64
2024/04/09 08:32:38;;;;;;;1.07;0.70;;;13.40;62.40;;;;;;5436622;26;20284;-64
2024/04/09 08:35:04;;;;;;;0.70;0.70;;;13.30;61.70;;;;;;5419925;26;20502;-63
2024/04/09 08:37:30;;;;;;;0.80;0.80;;;13.10;61.40;;;;;;5417632;26;20517;-64
2024/04/09 08:39:56;;;;;;;0.80;0.70;;;13.00;61.40;;;;;;5427667;26;20448;-65
2024/04/09 08:42:29;;;;;;;0.80;0.80;;;13.00;62.00;;;;;;5436485;26;20770;-64
2024/04/09 08:44:58;;;;;;;0.90;0.70;;;13.00;61.80;;;;;;5437848;26;20842;-64
2024/04/09 08:47:24;;;;;;;0.70;0.70;;;13.10;61.50;;;;;;5425523;26;20514;-64
2024/04/09 08:49:55;;;;;;;0.60;0.60;;;13.20;61.40;;;;;;5437662;26;20524;-64
2024/04/09 08:52:22;;;;;;;0.70;0.70;;;13.20;61.00;;;;;;5420804;26;20600;-63
2024/04/09 08:54:48;;;;;;;3.37;0.80;;;13.20;60.90;;;;;;5424763;26;20637;-63
2024/04/09 08:57:14;;;;;;;0.70;0.70;;;13.20;60.70;;;;;;5434104;26;21248;-62
2024/04/09 08:59:40;;;;;;;0.77;0.70;;;13.10;60.90;;;;;;5431832;26;20224;-63
2024/04/09 09:02:16;;;;;;;0.70;0.70;;;13.00;61.40;;;;;;5423610;26;20478;-62
2024/04/09 09:04:44;;;;;;;0.80;0.80;;;12.90;61.30;;;;;;5429905;26;21261;-63
2024/04/09 09:07:19;;;;;;;1.10;0.70;;;12.70;61.20;;;;;;5431462;26;21087;-64
2024/04/09 09:09:47;;;;;;;1.00;0.70;;;12.60;61.50;;;;;;5433207;26;20498;-64
2024/04/09 09:12:14;;;;;;;1.57;0.93;;;12.50;62.00;;;;;;5435913;26;20458;-64
2024/04/09 09:14:49;;;;;;;1.10;0.73;;;12.60;62.70;;;;;;5431731;26;20471;-64
2024/04/09 09:17:15;;;;;;;0.90;0.90;;;12.50;62.60;;;;;;5417627;26;20456;-64
2024/04/09 09:19:41;;;;;;;5.37;0.97;;;12.50;62.80;;;;;;5416935;26;21083;-65
2024/04/09 09:22:11;;;;;;;1.07;1.00;;;12.40;62.70;;;;;;5437797;26;20291;-63
2024/04/09 09:24:40;;;;;;;2.20;0.70;;;12.30;62.50;;;;;;5437606;26;20325;-64
2024/04/09 09:27:10;;;;;;;2.00;0.70;;;12.30;62.90;;;;;;5422643;26;20439;-63
2024/04/09 09:29:36;;;;;;;0.70;0.70;;;12.20;62.70;;;;;;5426828;26;20443;-62
2024/04/09 09:32:02;;;;;;;1.57;0.80;;;12.20;62.90;;;;;;5435874;26;20521;-62
2024/04/09 09:34:37;;;;;;;0.73;0.70;;;12.10;63.10;;;;;;5427280;26;20235;-64
2024/04/09 09:37:07;;;;;;;0.70;0.70;;;12.10;63.20;;;;;;5439799;26;21006;-63
2024/04/09 09:39:35;;;;;;;0.80;0.80;;;12.10;63.20;;;;;;5435595;26;20564;-64
2024/04/09 09:42:01;;;;;;;0.80;0.80;;;12.00;63.10;;;;;;5419860;26;20529;-64
2024/04/09 09:44:29;;;;;;;1.37;0.87;;;12.00;63.10;;;;;;5415364;26;20820;-64
2024/04/09 09:46:57;;;;;;;1.37;0.73;;;11.90;63.00;;;;;;5433384;26;20254;-64
2024/04/09 09:49:24;;;;;;;0.83;0.80;;;11.80;63.20;;;;;;5429161;26;20510;-63
2024/04/09 09:51:51;;;;;;;0.80;0.70;;;11.80;63.40;;;;;;5425936;26;20613;-63
2024/04/09 09:54:16;;;;;;;0.90;0.90;;;11.80;63.40;;;;;;5423125;26;20511;-63
2024/04/09 09:56:43;;;;;;;1.13;0.80;;;11.70;62.90;;;;;;5429191;26;20506;-64
2024/04/09 09:59:13;;;;;;;0.73;0.73;;;11.60;63.20;;;;;;5424261;26;20301;-64
2024/04/09 10:01:39;;;;;;;1.17;1.00;;;11.60;62.30;;;;;;5424520;26;20510;-64
2024/04/09 10:04:05;;;;;;;0.90;0.90;;;11.60;61.40;;;;;;5433019;26;20548;-66
2024/04/09 10:06:31;;;;;;;0.70;0.70;;;11.60;61.10;;;;;;5410996;26;20450;-64
2024/04/09 10:08:56;;;;;;;1.03;0.93;;;11.50;60.80;;;;;;5440811;26;20503;-65
2024/04/09 10:11:22;;;;;;;1.20;1.00;;;11.50;60.70;;;;;;5434644;26;20217;-65
2024/04/09 10:13:51;;;;;;;1.17;0.90;;;11.40;61.20;;;;;;5435142;26;20224;-65
2024/04/09 10:16:18;;;;;;;0.70;0.70;;;11.30;60.70;;;;;;5431694;26;20229;-65
2024/04/09 10:18:46;;;;;;;0.80;0.80;;;11.40;60.90;;;;;;5439761;26;20812;-64
2024/04/09 10:21:15;;;;;;;0.70;0.70;;;11.30;60.50;;;;;;5418939;26;20458;-64
2024/04/09 10:23:41;;;;;;;0.70;0.70;;;11.20;60.40;;;;;;5422358;26;20539;-65
2024/04/09 10:26:10;;;;;;;0.90;0.90;;;11.20;60.40;;;;;;5434109;26;21207;-57
2024/04/09 10:28:36;;;;;;;2.80;1.30;;;11.00;60.40;;;;;;5423809;26;20228;-58
2024/04/09 10:31:08;;;;;;;0.90;0.90;;;11.00;61.00;;;;;;5435823;26;21214;-57
2024/04/09 10:33:35;;;;;;;0.80;0.80;;;10.90;60.80;;;;;;5423046;26;20462;-60
2024/04/09 10:36:08;;;;;;;1.00;0.90;;;10.80;60.40;;;;;;5417210;26;20523;-65
2024/04/09 10:38:37;;;;;;;0.80;0.80;;;10.80;60.70;;;;;;5429499;26;20457;-64
2024/04/09 10:41:03;;;;;;;1.37;0.80;;;10.60;60.60;;;;;;5427489;26;20452;-64
2024/04/09 10:43:35;;;;;;;1.27;0.90;;;10.60;60.80;;;;;;5420611;26;20586;-64
2024/04/09 10:46:00;;;;;;;2.63;1.23;;;10.60;60.60;;;;;;5416079;26;20560;-65
2024/04/09 10:48:26;;;;;;;1.60;1.00;;;10.50;60.80;;;;;;5420923;26;20916;-63
2024/04/09 10:50:52;;;;;;;3.13;1.00;;;10.50;60.80;;;;;;5430094;26;20602;-66
2024/04/09 10:53:18;;;;;;;0.70;0.70;;;10.40;60.60;;;;;;5430164;26;20517;-64
2024/04/09 10:55:45;;;;;;;1.00;0.80;;;10.30;60.60;;;;;;5438761;26;20288;-65
2024/04/09 10:58:17;;;;;;;1.53;0.80;;;10.30;61.00;;;;;;5429276;26;20442;-65
2024/04/09 11:00:51;;;;;;;3.90;0.80;;;10.30;60.80;;;;;;5410202;26;20576;-64
2024/04/09 11:03:25;;;;;;;2.13;0.80;;;10.20;60.90;;;;;;5441734;26;21075;-65
2024/04/09 11:05:51;;;;;;;0.80;0.80;;;10.10;61.20;;;;;;5432429;26;20460;-67
2024/04/09 11:08:30;;;;;;;0.80;0.80;;;10.10;61.50;;;;;;5420747;26;21103;-65
2024/04/09 11:10:58;;;;;;;0.80;0.80;;;10.10;61.70;;;;;;5429248;26;20505;-65
2024/04/09 11:13:24;;;;;;;0.70;0.70;;;10.10;62.00;;;;;;5428456;26;20459;-65
2024/04/09 11:15:50;;;;;;;0.90;0.90;;;10.10;62.20;;;;;;5434168;26;21195;-65
2024/04/09 11:18:20;;;;;;;0.70;0.70;;;10.00;63.10;;;;;;5427455;26;20893;-64
2024/04/09 11:20:59;;;;;;;0.77;0.77;;;10.00;63.80;;;;;;5427358;26;20227;-65
2024/04/09 11:23:26;;;;;;;0.97;0.80;;;9.90;65.80;;;;;;5424760;26;21043;-65
2024/04/09 11:25:52;;;;;;;0.73;0.73;;;9.90;66.50;;;;;;5429246;26;20461;-64
2024/04/09 11:28:19;;;;;;;0.90;0.90;;;9.80;67.30;;;;;;5427874;26;20534;-65
2024/04/09 11:30:50;;;;;;;0.77;0.77;;;9.80;68.20;;;;;;5430335;26;20477;-65
2024/04/09 11:33:16;;;;;;;0.90;0.80;;;9.80;68.80;;;;;;5422934;26;20572;-64
2024/04/09 11:35:42;;;;;;;1.73;0.80;;;9.80;67.30;;;;;;5432986;26;20461;-65
2024/04/09 11:38:09;;;;;;;0.77;0.77;;;9.70;68.10;;;;;;5411946;26;20273;-64
2024/04/09 11:40:35;;;;;;;1.90;0.90;;;9.70;67.20;;;;;;5414826;26;20507;-64
2024/04/09 11:43:01;;;;;;;4.73;0.97;;;9.70;66.70;;;;;;5413938;26;20558;-64
2024/04/09 11:45:35;;;;;;;0.90;0.90;;;9.60;66.20;;;;;;5408185;26;20509;-65
2024/04/09 11:48:04;;;;;;;2.80;1.10;;;9.50;66.00;;;;;;5405824;26;21119;-64
2024/04/09 11:50:30;;;;;;;3.10;1.60;;;9.40;65.60;;;;;;5416352;26;20457;-65
2024/04/09 11:52:56;;;;;;;1.80;1.50;;;9.30;65.90;;;;;;5427052;26;20511;-65
2024/04/09 11:55:21;;;;;;;1.50;1.40;;;9.20;65.40;;;;;;5422045;26;20262;-64
2024/04/09 11:57:47;;;;;;;1.30;1.20;;;9.20;65.50;;;;;;5422443;26;20270;-64
2024/04/09 12:00:14;;;;;;;1.60;1.50;;;9.20;65.40;;;;;;5429396;26;20281;-64
2024/04/09 12:02:41;;;;;;;1.90;1.30;;;9.20;65.60;;;;;;5417229;26;20283;-64
2024/04/09 12:05:07;;;;;;;3.80;1.50;;;9.20;65.40;;;;;;5429668;26;20449;-64
2024/04/09 12:07:32;;;;;;;2.60;1.70;;;9.20;65.30;;;;;;5412082;26;20466;-64
2024/04/09 12:09:58;;;;;;;1.63;1.30;;;9.30;65.50;;;;;;5414637;26;20940;-65
2024/04/09 12:12:24;;;;;;;1.50;1.40;;;9.40;65.10;;;;;;5418442;26;20224;-65
2024/04/09 12:14:49;;;;;;;1.20;1.10;;;9.40;64.80;;;;;;5413623;26;20240;-63
2024/04/09 12:17:15;;;;;;;3.10;1.23;;;9.40;64.90;;;;;;5420946;26;20998;-65
2024/04/09 12:19:42;;;;;;;8.80;1.30;;;9.50;64.80;;;;;;5415409;26;20236;-64
2024/04/09 12:22:08;;;;;;;1.50;1.00;;;9.60;65.50;;;;;;5420610;26;20229;-64
2024/04/09 12:24:35;;;;;;;0.73;0.73;;;9.60;65.70;;;;;;5413536;26;21088;-64
2024/04/09 12:27:01;;;;;;;1.30;1.00;;;9.70;64.60;;;;;;5416092;26;20250;-64
2024/04/09 12:29:28;;;;;;;1.00;1.00;;;9.70;63.60;;;;;;5429107;26;20458;-64
2024/04/09 12:31:54;;;;;;;0.90;0.90;;;9.80;62.60;;;;;;5412872;26;20267;-65
2024/04/09 12:34:22;;;;;;;0.80;0.80;;;9.80;62.10;;;;;;5418736;26;20447;-65
2024/04/09 12:36:48;;;;;;;0.80;0.80;;;9.90;61.40;;;;;;5411512;26;20518;-64
2024/04/09 12:39:14;;;;;;;0.80;0.80;;;9.80;60.80;;;;;;5426099;26;20449;-65